Historique des mesures à Cassis (13260), France
Quotidien Résumé Juin 19, 2021 Unités:  US    Métrique   Métrique/US
Quotidien Hebdomadaire Mensuel Annuel
  Maximum: Minimum: Moyenne:
Température: 70 °F 55.6 °F 62.4 °F
Point de rosée: 60.1 °F 51.1 °F 55.4 °F
Humidité: 86% 69% 78%
Vitesse du vent: 5.8mph 0mph 1.9mph
Rafales: 7.4mph - -
Vent- - WSW
Pression: 30.3 in 30.2 in -
Précipitations: 0 in    
Historical Graphs
 
 
Mesures pour : Juin 19, 2021
Heure Temperature Point de rosée Pression Vent Vitesse du vent Rafales Humidité Pluie (par heure)
00:11 58.6 °F 53.8 °F 30.2 in NW 5.8 mph 7.4 mph 84% 0 in
01:11 58.5 °F 54 °F 30.3 in NW 3.6 mph 6.7 mph 85% 0 in
02:11 57.7 °F 53.2 °F 30.3 in WNW 3.1 mph 4.7 mph 85% 0 in
03:11 57.4 °F 53.2 °F 30.3 in Calm   3.8 mph 86% 0 in
04:11 57 °F 52.9 °F 30.3 in WNW 5.3 mph 5.6 mph 86% 0 in
05:11 56.8 °F 52.7 °F 30.3 in WNW 1.6 mph 2.9 mph 86% 0 in
06:11 56.1 °F 51.6 °F 30.3 in WNW 3.8 mph 5.3 mph 85% 0 in
07:11 55.8 °F 51.3 °F 30.3 in NNW 3.6 mph 5.2 mph 85% 0 in
08:11 55.6 °F 51.1 °F 30.3 in WNW 2.5 mph 4.7 mph 85% 0 in
09:11 57.9 °F 52.7 °F 30.3 in WNW 2.2 mph 3.4 mph 83% 0 in
10:11 61 °F 55.6 °F 30.3 in NW 2 mph 2 mph 82% 0 in
11:11 63.1 °F 57.2 °F 30.3 in WNW 1.1 mph 3.4 mph 81% 0 in
12:11 65.5 °F 58.8 °F 30.3 in South 2 mph 3.6 mph 79% 0 in
13:11 67.6 °F 59 °F 30.3 in South 1.4 mph 6.5 mph 74% 0 in
14:11 70 °F 60.1 °F 30.3 in SE 2.9 mph 4.9 mph 71% 0 in
15:11 70 °F 59.4 °F 30.3 in SSW 2.2 mph 6.7 mph 69% 0 in
16:11 68.7 °F 58.6 °F 30.3 in ESE 1.6 mph 1.6 mph 70% 0 in
17:11 68.7 °F 58.6 °F 30.3 in SSE 1.6 mph 2.2 mph 70% 0 in
18:11 67.1 °F 57 °F 30.3 in Calm     70% 0 in
19:11 65.5 °F 55.8 °F 30.3 in Calm     71% 0 in
20:11 64.9 °F 56.1 °F 30.3 in Calm   2.2 mph 73% 0 in
21:11 64.6 °F 55.8 °F 30.3 in Calm     73% 0 in
22:11 64.4 °F 55.9 °F 30.3 in Calm     74% 0 in
23:11 64.4 °F 56.3 °F 30.3 in Calm   1.4 mph 75% 0 in
Observations météo à CASSIS
WU-History script by Weather Underground - 2 mb